sensor_id;sensor_type;location;lat;lon;timestamp;pressure;altitude;pressure_sealevel;temperature;humidity
16355;BME280;8287;51.644;8.494;2024-02-16T00:00:57;99932.69;;;12.37;100.00
16355;BME280;8287;51.644;8.494;2024-02-16T00:03:25;99931.94;;;12.28;100.00
16355;BME280;8287;51.644;8.494;2024-02-16T00:05:51;99927.16;;;12.42;100.00
16355;BME280;8287;51.644;8.494;2024-02-16T00:08:18;99931.38;;;12.22;100.00
16355;BME280;8287;51.644;8.494;2024-02-16T00:10:47;99932.06;;;12.31;100.00
16355;BME280;8287;51.644;8.494;2024-02-16T00:13:13;99919.13;;;12.30;100.00
16355;BME280;8287;51.644;8.494;2024-02-16T00:15:40;99922.91;;;12.29;100.00
16355;BME280;8287;51.644;8.494;2024-02-16T00:18:07;99920.69;;;12.31;100.00
16355;BME280;8287;51.644;8.494;2024-02-16T00:20:33;99926.53;;;12.24;100.00
16355;BME280;8287;51.644;8.494;2024-02-16T00:23:00;99928.25;;;12.20;100.00
16355;BME280;8287;51.644;8.494;2024-02-16T00:25:26;99919.13;;;12.30;100.00
16355;BME280;8287;51.644;8.494;2024-02-16T00:27:54;99927.41;;;12.49;100.00
16355;BME280;8287;51.644;8.494;2024-02-16T00:30:21;99926.88;;;12.35;100.00
16355;BME280;8287;51.644;8.494;2024-02-16T00:32:48;99925.06;;;12.06;100.00
16355;BME280;8287;51.644;8.494;2024-02-16T00:35:15;99922.38;;;12.15;100.00
16355;BME280;8287;51.644;8.494;2024-02-16T00:37:43;99924.50;;;12.21;100.00
16355;BME280;8287;51.644;8.494;2024-02-16T00:40:12;99921.41;;;12.19;100.00
16355;BME280;8287;51.644;8.494;2024-02-16T00:42:38;99920.16;;;12.17;100.00
16355;BME280;8287;51.644;8.494;2024-02-16T00:45:07;99914.53;;;11.98;100.00
16355;BME280;8287;51.644;8.494;2024-02-16T00:47:34;99910.31;;;11.97;100.00
16355;BME280;8287;51.644;8.494;2024-02-16T00:50:01;99910.31;;;11.97;100.00
16355;BME280;8287;51.644;8.494;2024-02-16T00:52:30;99915.03;;;11.91;100.00
16355;BME280;8287;51.644;8.494;2024-02-16T00:54:57;99911.72;;;11.94;100.00
16355;BME280;8287;51.644;8.494;2024-02-16T00:57:23;99906.44;;;12.15;100.00
16355;BME280;8287;51.644;8.494;2024-02-16T00:59:50;99912.91;;;12.26;100.00
16355;BME280;8287;51.644;8.494;2024-02-16T01:02:18;99910.69;;;12.28;100.00
16355;BME280;8287;51.644;8.494;2024-02-16T01:04:44;99907.94;;;12.24;100.00
16355;BME280;8287;51.644;8.494;2024-02-16T01:07:12;99897.53;;;12.31;100.00
16355;BME280;8287;51.644;8.494;2024-02-16T01:09:38;99904.47;;;12.44;100.00
16355;BME280;8287;51.644;8.494;2024-02-16T01:12:05;99886.28;;;12.67;100.00
16355;BME280;8287;51.644;8.494;2024-02-16T01:14:32;99887.19;;;13.15;95.43
16355;BME280;8287;51.644;8.494;2024-02-16T01:16:58;99892.53;;;13.51;93.87
16355;BME280;8287;51.644;8.494;2024-02-16T01:19:26;99892.75;;;13.58;91.99
16355;BME280;8287;51.644;8.494;2024-02-16T01:21:53;99895.06;;;13.71;91.11
16355;BME280;8287;51.644;8.494;2024-02-16T01:24:23;99889.72;;;13.83;90.21
16355;BME280;8287;51.644;8.494;2024-02-16T01:26:49;99881.69;;;13.95;89.55
16355;BME280;8287;51.644;8.494;2024-02-16T01:29:16;99879.44;;;14.09;88.77
16355;BME280;8287;51.644;8.494;2024-02-16T01:31:42;99881.44;;;14.24;88.76
16355;BME280;8287;51.644;8.494;2024-02-16T01:34:09;99877.69;;;14.41;89.02
16355;BME280;8287;51.644;8.494;2024-02-16T01:36:37;99877.69;;;14.41;88.18
16355;BME280;8287;51.644;8.494;2024-02-16T01:39:03;99873.09;;;14.53;86.66
16355;BME280;8287;51.644;8.494;2024-02-16T01:41:30;99878.28;;;14.77;85.98
16355;BME280;8287;51.644;8.494;2024-02-16T01:43:56;99883.13;;;14.87;85.19
16355;BME280;8287;51.644;8.494;2024-02-16T01:46:25;99879.50;;;14.95;83.33
16355;BME280;8287;51.644;8.494;2024-02-16T01:48:52;99885.22;;;15.09;83.82
16355;BME280;8287;51.644;8.494;2024-02-16T01:51:22;99883.56;;;15.20;83.48
16355;BME280;8287;51.644;8.494;2024-02-16T01:53:50;99884.88;;;15.26;83.48
16355;BME280;8287;51.644;8.494;2024-02-16T01:56:17;99890.72;;;15.16;85.06
16355;BME280;8287;51.644;8.494;2024-02-16T01:58:46;99897.53;;;15.14;84.42
16355;BME280;8287;51.644;8.494;2024-02-16T02:01:12;99882.78;;;15.04;84.83
16355;BME280;8287;51.644;8.494;2024-02-16T02:03:39;99884.69;;;14.88;85.10
16355;BME280;8287;51.644;8.494;2024-02-16T02:06:06;99887.91;;;14.66;86.41
16355;BME280;8287;51.644;8.494;2024-02-16T02:08:33;99883.75;;;14.53;87.11
16355;BME280;8287;51.644;8.494;2024-02-16T02:11:01;99885.66;;;14.25;89.08
16355;BME280;8287;51.644;8.494;2024-02-16T02:13:28;99888.75;;;14.27;88.46
16355;BME280;8287;51.644;8.494;2024-02-16T02:15:56;99884.13;;;14.00;87.27
16355;BME280;8287;51.644;8.494;2024-02-16T02:18:24;99891.03;;;13.89;89.65
16355;BME280;8287;51.644;8.494;2024-02-16T02:20:51;99880.50;;;13.93;90.22
16355;BME280;8287;51.644;8.494;2024-02-16T02:23:20;99881.25;;;14.05;89.61
16355;BME280;8287;51.644;8.494;2024-02-16T02:25:46;99871.66;;;14.16;88.28
16355;BME280;8287;51.644;8.494;2024-02-16T02:28:14;99872.41;;;14.29;88.58
16355;BME280;8287;51.644;8.494;2024-02-16T02:30:41;99869.88;;;14.20;89.77
16355;BME280;8287;51.644;8.494;2024-02-16T02:33:07;99876.00;;;14.21;88.70
16355;BME280;8287;51.644;8.494;2024-02-16T02:35:34;99873.91;;;14.02;89.75
16355;BME280;8287;51.644;8.494;2024-02-16T02:38:01;99875.00;;;14.13;88.90
16355;BME280;8287;51.644;8.494;2024-02-16T02:40:30;99855.72;;;14.04;89.40
16355;BME280;8287;51.644;8.494;2024-02-16T02:42:57;99853.19;;;13.96;90.02
16355;BME280;8287;51.644;8.494;2024-02-16T02:45:24;99851.06;;;14.01;89.63
16355;BME280;8287;51.644;8.494;2024-02-16T02:47:51;99854.13;;;14.15;89.12
16355;BME280;8287;51.644;8.494;2024-02-16T02:50:17;99852.44;;;14.23;89.96
16355;BME280;8287;51.644;8.494;2024-02-16T02:52:44;99854.28;;;14.34;88.98
16355;BME280;8287;51.644;8.494;2024-02-16T02:55:11;99856.03;;;14.42;89.03
16355;BME280;8287;51.644;8.494;2024-02-16T02:57:39;99841.97;;;14.57;87.85
16355;BME280;8287;51.644;8.494;2024-02-16T03:00:07;99835.84;;;14.57;86.57
16355;BME280;8287;51.644;8.494;2024-02-16T03:02:36;99837.94;;;14.63;87.42
16355;BME280;8287;51.644;8.494;2024-02-16T03:05:04;99846.41;;;14.53;88.55
16355;BME280;8287;51.644;8.494;2024-02-16T03:07:31;99842.19;;;14.37;89.02
16355;BME280;8287;51.644;8.494;2024-02-16T03:09:58;99834.09;;;14.33;89.71
16355;BME280;8287;51.644;8.494;2024-02-16T03:12:25;99841.59;;;14.43;88.47
16355;BME280;8287;51.644;8.494;2024-02-16T03:14:53;99825.97;;;14.57;87.16
16355;BME280;8287;51.644;8.494;2024-02-16T03:17:19;99835.09;;;14.72;87.70
16355;BME280;8287;51.644;8.494;2024-02-16T03:19:46;99833.41;;;14.79;87.49
16355;BME280;8287;51.644;8.494;2024-02-16T03:22:12;99826.69;;;14.85;87.56
16355;BME280;8287;51.644;8.494;2024-02-16T03:24:39;99832.00;;;14.85;87.87
16355;BME280;8287;51.644;8.494;2024-02-16T03:27:05;99832.72;;;14.82;88.53
16355;BME280;8287;51.644;8.494;2024-02-16T03:29:32;99835.94;;;14.60;88.88
16355;BME280;8287;51.644;8.494;2024-02-16T03:32:00;99827.75;;;14.53;89.01
16355;BME280;8287;51.644;8.494;2024-02-16T03:34:26;99830.16;;;14.43;90.01
16355;BME280;8287;51.644;8.494;2024-02-16T03:36:53;99824.03;;;14.27;89.75
16355;BME280;8287;51.644;8.494;2024-02-16T03:39:20;99819.13;;;14.29;89.05
16355;BME280;8287;51.644;8.494;2024-02-16T03:41:46;99819.44;;;14.55;88.70
16355;BME280;8287;51.644;8.494;2024-02-16T03:44:14;99808.28;;;14.80;86.14
16355;BME280;8287;51.644;8.494;2024-02-16T03:46:41;99816.44;;;15.03;84.85
16355;BME280;8287;51.644;8.494;2024-02-16T03:49:09;99815.75;;;15.21;83.10
16355;BME280;8287;51.644;8.494;2024-02-16T03:51:36;99821.84;;;15.37;82.79
16355;BME280;8287;51.644;8.494;2024-02-16T03:54:03;99822.72;;;15.41;82.03
16355;BME280;8287;51.644;8.494;2024-02-16T03:56:30;99822.97;;;15.52;81.29
16355;BME280;8287;51.644;8.494;2024-02-16T03:58:57;99824.84;;;15.51;79.61
16355;BME280;8287;51.644;8.494;2024-02-16T04:01:23;99822.84;;;15.83;79.33
16355;BME280;8287;51.644;8.494;2024-02-16T04:03:50;99822.50;;;15.84;80.26
16355;BME280;8287;51.644;8.494;2024-02-16T04:06:18;99831.06;;;15.74;78.13
16355;BME280;8287;51.644;8.494;2024-02-16T04:08:45;99831.91;;;15.78;79.29
16355;BME280;8287;51.644;8.494;2024-02-16T04:11:12;99827.81;;;15.65;79.86
16355;BME280;8287;51.644;8.494;2024-02-16T04:13:40;99833.13;;;16.00;78.69
16355;BME280;8287;51.644;8.494;2024-02-16T04:16:06;99828.78;;;16.11;78.66
16355;BME280;8287;51.644;8.494;2024-02-16T04:18:33;99837.69;;;16.18;78.39
16355;BME280;8287;51.644;8.494;2024-02-16T04:20:59;99835.81;;;16.19;79.43
16355;BME280;8287;51.644;8.494;2024-02-16T04:23:27;99838.91;;;16.21;79.45
16355;BME280;8287;51.644;8.494;2024-02-16T04:25:54;99834.28;;;16.18;79.25
16355;BME280;8287;51.644;8.494;2024-02-16T04:28:21;99843.47;;;16.20;78.75
16355;BME280;8287;51.644;8.494;2024-02-16T04:30:49;99835.44;;;15.82;79.54
16355;BME280;8287;51.644;8.494;2024-02-16T04:33:15;99846.41;;;15.77;82.42
16355;BME280;8287;51.644;8.494;2024-02-16T04:35:42;99838.03;;;15.79;81.70
16355;BME280;8287;51.644;8.494;2024-02-16T04:38:12;99839.44;;;15.38;82.76
16355;BME280;8287;51.644;8.494;2024-02-16T04:40:40;99836.69;;;15.35;84.01
16355;BME280;8287;51.644;8.494;2024-02-16T04:43:06;99843.19;;;15.53;83.79
16355;BME280;8287;51.644;8.494;2024-02-16T04:45:33;99830.81;;;15.45;83.17
16355;BME280;8287;51.644;8.494;2024-02-16T04:48:02;99831.75;;;15.37;83.73
16355;BME280;8287;51.644;8.494;2024-02-16T04:50:29;99834.31;;;15.49;83.50
16355;BME280;8287;51.644;8.494;2024-02-16T04:52:56;99827.94;;;15.53;81.99
16355;BME280;8287;51.644;8.494;2024-02-16T04:55:22;99824.34;;;15.46;81.91
16355;BME280;8287;51.644;8.494;2024-02-16T04:57:50;99829.53;;;15.73;81.86
16355;BME280;8287;51.644;8.494;2024-02-16T05:00:17;99823.56;;;15.80;81.97
16355;BME280;8287;51.644;8.494;2024-02-16T05:02:46;99829.53;;;15.73;81.37
16355;BME280;8287;51.644;8.494;2024-02-16T05:05:12;99821.44;;;15.89;80.99
16355;BME280;8287;51.644;8.494;2024-02-16T05:07:41;99823.69;;;15.87;80.89
16355;BME280;8287;51.644;8.494;2024-02-16T05:10:09;99822.66;;;15.91;80.61
16355;BME280;8287;51.644;8.494;2024-02-16T05:12:36;99819.75;;;16.00;80.82
16355;BME280;8287;51.644;8.494;2024-02-16T05:15:05;99809.84;;;16.00;80.49
16355;BME280;8287;51.644;8.494;2024-02-16T05:17:32;99809.28;;;16.10;79.88
16355;BME280;8287;51.644;8.494;2024-02-16T05:19:58;99813.50;;;16.11;79.62
16355;BME280;8287;51.644;8.494;2024-02-16T05:22:25;99806.75;;;16.17;79.69
16355;BME280;8287;51.644;8.494;2024-02-16T05:24:51;99805.63;;;16.18;80.24
16355;BME280;8287;51.644;8.494;2024-02-16T05:27:18;99805.34;;;16.23;79.94
16355;BME280;8287;51.644;8.494;2024-02-16T05:29:44;99806.03;;;16.20;79.18
16355;BME280;8287;51.644;8.494;2024-02-16T05:32:12;99799.50;;;16.37;79.44
16355;BME280;8287;51.644;8.494;2024-02-16T05:34:39;99800.28;;;16.37;79.54
16355;BME280;8287;51.644;8.494;2024-02-16T05:37:06;99795.06;;;16.44;78.63
16355;BME280;8287;51.644;8.494;2024-02-16T05:39:36;99795.47;;;16.46;77.68
16355;BME280;8287;51.644;8.494;2024-02-16T05:42:19;99796.91;;;16.40;78.16
16355;BME280;8287;51.644;8.494;2024-02-16T05:44:45;99801.66;;;16.50;78.62
16355;BME280;8287;51.644;8.494;2024-02-16T05:47:13;99807.59;;;16.40;78.03
16355;BME280;8287;51.644;8.494;2024-02-16T05:49:39;99794.38;;;16.47;78.26
16355;BME280;8287;51.644;8.494;2024-02-16T05:52:06;99791.91;;;16.39;77.88
16355;BME280;8287;51.644;8.494;2024-02-16T05:54:47;99792.78;;;16.46;78.54
16355;BME280;8287;51.644;8.494;2024-02-16T05:57:15;99801.81;;;16.38;78.47
16355;BME280;8287;51.644;8.494;2024-02-16T05:59:43;99792.78;;;16.46;78.43
16355;BME280;8287;51.644;8.494;2024-02-16T06:02:10;99789.19;;;16.58;77.57
16355;BME280;8287;51.644;8.494;2024-02-16T06:04:39;99794.91;;;16.56;77.17
16355;BME280;8287;51.644;8.494;2024-02-16T06:07:05;99788.84;;;16.59;77.33
16355;BME280;8287;51.644;8.494;2024-02-16T06:09:32;99788.03;;;16.59;77.18
16355;BME280;8287;51.644;8.494;2024-02-16T06:12:01;99793.13;;;16.64;77.13
16355;BME280;8287;51.644;8.494;2024-02-16T06:14:30;99788.91;;;16.63;77.91
16355;BME280;8287;51.644;8.494;2024-02-16T06:16:56;99793.13;;;16.64;77.30
16355;BME280;8287;51.644;8.494;2024-02-16T06:19:23;99802.34;;;16.66;77.70
16355;BME280;8287;51.644;8.494;2024-02-16T06:21:52;99802.56;;;16.58;77.28
16355;BME280;8287;51.644;8.494;2024-02-16T06:24:19;99801.00;;;16.57;78.06
16355;BME280;8287;51.644;8.494;2024-02-16T06:26:46;99809.16;;;16.41;78.06
16355;BME280;8287;51.644;8.494;2024-02-16T06:29:13;99806.41;;;16.38;78.60
16355;BME280;8287;51.644;8.494;2024-02-16T06:31:40;99810.63;;;16.39;79.47
16355;BME280;8287;51.644;8.494;2024-02-16T06:34:06;99796.72;;;16.52;79.44
16355;BME280;8287;51.644;8.494;2024-02-16T06:36:33;99795.19;;;16.51;79.05
16355;BME280;8287;51.644;8.494;2024-02-16T06:39:01;99808.91;;;16.50;79.45
16355;BME280;8287;51.644;8.494;2024-02-16T06:41:29;99803.00;;;16.60;78.74
16355;BME280;8287;51.644;8.494;2024-02-16T06:43:55;99796.00;;;16.55;78.92
16355;BME280;8287;51.644;8.494;2024-02-16T06:46:22;99807.84;;;16.54;79.21
16355;BME280;8287;51.644;8.494;2024-02-16T06:48:50;99814.84;;;16.62;79.08
16355;BME280;8287;51.644;8.494;2024-02-16T06:51:17;99811.03;;;16.60;79.17
16355;BME280;8287;51.644;8.494;2024-02-16T06:53:44;99824.94;;;16.50;80.19
16355;BME280;8287;51.644;8.494;2024-02-16T06:56:12;99821.59;;;16.53;80.25
16355;BME280;8287;51.644;8.494;2024-02-16T06:58:38;99827.16;;;16.67;80.39
16355;BME280;8287;51.644;8.494;2024-02-16T07:01:05;99820.34;;;16.69;80.82
16355;BME280;8287;51.644;8.494;2024-02-16T07:03:33;99823.06;;;16.73;80.08
16355;BME280;8287;51.644;8.494;2024-02-16T07:06:02;99829.69;;;16.56;81.11
16355;BME280;8287;51.644;8.494;2024-02-16T07:08:28;99817.53;;;16.62;80.95
16355;BME280;8287;51.644;8.494;2024-02-16T07:10:55;99816.84;;;16.65;81.10
16355;BME280;8287;51.644;8.494;2024-02-16T07:13:23;99821.06;;;16.66;80.60
16355;BME280;8287;51.644;8.494;2024-02-16T07:15:49;99828.47;;;16.54;81.59
16355;BME280;8287;51.644;8.494;2024-02-16T07:18:16;99820.69;;;16.67;81.24
16355;BME280;8287;51.644;8.494;2024-02-16T07:20:43;99824.56;;;16.70;81.20
16355;BME280;8287;51.644;8.494;2024-02-16T07:23:09;99825.41;;;16.74;81.39
16355;BME280;8287;51.644;8.494;2024-02-16T07:25:36;99837.25;;;16.73;81.35
16355;BME280;8287;51.644;8.494;2024-02-16T07:28:03;99859.34;;;16.70;81.24
16355;BME280;8287;51.644;8.494;2024-02-16T07:30:31;99888.25;;;16.83;81.00
16355;BME280;8287;51.644;8.494;2024-02-16T07:32:58;99898.13;;;16.79;81.51
16355;BME280;8287;51.644;8.494;2024-02-16T07:35:24;99889.69;;;16.77;82.31
16355;BME280;8287;51.644;8.494;2024-02-16T07:37:51;99889.63;;;16.74;83.32
16355;BME280;8287;51.644;8.494;2024-02-16T07:40:19;99892.81;;;16.61;84.07
16355;BME280;8287;51.644;8.494;2024-02-16T07:42:46;99887.81;;;16.59;84.73
16355;BME280;8287;51.644;8.494;2024-02-16T07:45:12;99884.06;;;16.64;84.65
16355;BME280;8287;51.644;8.494;2024-02-16T07:47:41;99889.34;;;16.60;84.76
16355;BME280;8287;51.644;8.494;2024-02-16T07:50:08;99886.91;;;16.52;85.29
16355;BME280;8287;51.644;8.494;2024-02-16T07:52:36;99884.28;;;16.55;85.12
16355;BME280;8287;51.644;8.494;2024-02-16T07:55:03;99877.69;;;16.49;85.02
16355;BME280;8287;51.644;8.494;2024-02-16T07:57:30;99879.28;;;16.54;84.47
16355;BME280;8287;51.644;8.494;2024-02-16T07:59:57;99877.50;;;16.61;84.17
16355;BME280;8287;51.644;8.494;2024-02-16T08:02:23;99870.81;;;16.71;83.35
16355;BME280;8287;51.644;8.494;2024-02-16T08:04:51;99875.78;;;16.91;82.31
16355;BME280;8287;51.644;8.494;2024-02-16T08:07:18;99883.94;;;16.98;82.56
16355;BME280;8287;51.644;8.494;2024-02-16T08:09:45;99883.16;;;16.97;83.34
16355;BME280;8287;51.644;8.494;2024-02-16T08:12:11;99879.47;;;17.05;82.88
16355;BME280;8287;51.644;8.494;2024-02-16T08:14:38;99886.00;;;17.08;83.29
16355;BME280;8287;51.644;8.494;2024-02-16T08:17:05;99889.38;;;17.05;82.76
16355;BME280;8287;51.644;8.494;2024-02-16T08:19:33;99894.50;;;17.13;81.77
16355;BME280;8287;51.644;8.494;2024-02-16T08:22:01;99889.56;;;17.15;81.90
16355;BME280;8287;51.644;8.494;2024-02-16T08:24:28;99892.38;;;17.22;80.75
16355;BME280;8287;51.644;8.494;2024-02-16T08:26:55;99890.47;;;17.23;80.87
16355;BME280;8287;51.644;8.494;2024-02-16T08:29:21;99888.09;;;17.18;81.06
16355;BME280;8287;51.644;8.494;2024-02-16T08:31:49;99888.28;;;17.06;81.57
16355;BME280;8287;51.644;8.494;2024-02-16T08:34:15;99886.41;;;17.10;83.30
16355;BME280;8287;51.644;8.494;2024-02-16T08:36:43;99895.31;;;17.14;82.72
16355;BME280;8287;51.644;8.494;2024-02-16T08:39:11;99895.09;;;17.26;82.92
16355;BME280;8287;51.644;8.494;2024-02-16T08:41:38;99896.31;;;17.28;83.72
16355;BME280;8287;51.644;8.494;2024-02-16T08:44:06;99910.50;;;17.32;83.53
16355;BME280;8287;51.644;8.494;2024-02-16T08:46:34;99921.94;;;17.29;83.55
16355;BME280;8287;51.644;8.494;2024-02-16T08:49:01;99912.78;;;17.30;83.73
16355;BME280;8287;51.644;8.494;2024-02-16T08:51:27;99920.63;;;17.20;82.81
16355;BME280;8287;51.644;8.494;2024-02-16T08:53:54;99922.78;;;17.11;83.89
16355;BME280;8287;51.644;8.494;2024-02-16T08:56:22;99930.88;;;17.14;84.02
16355;BME280;8287;51.644;8.494;2024-02-16T08:58:49;99931.66;;;17.15;84.58
16355;BME280;8287;51.644;8.494;2024-02-16T09:01:16;99930.13;;;17.17;83.74
16355;BME280;8287;51.644;8.494;2024-02-16T09:03:43;99929.84;;;17.22;83.91
16355;BME280;8287;51.644;8.494;2024-02-16T09:06:09;99926.50;;;17.29;84.06
16355;BME280;8287;51.644;8.494;2024-02-16T09:08:36;99923.13;;;17.09;83.52
16355;BME280;8287;51.644;8.494;2024-02-16T09:11:02;99914.81;;;17.14;84.32
16355;BME280;8287;51.644;8.494;2024-02-16T09:13:32;99909.97;;;17.23;84.47
16355;BME280;8287;51.644;8.494;2024-02-16T09:15:59;99925.03;;;17.31;83.65
16355;BME280;8287;51.644;8.494;2024-02-16T09:18:26;99952.78;;;17.42;82.35
16355;BME280;8287;51.644;8.494;2024-02-16T09:20:52;99936.38;;;17.44;82.75
16355;BME280;8287;51.644;8.494;2024-02-16T09:23:19;99942.13;;;17.46;82.41
16355;BME280;8287;51.644;8.494;2024-02-16T09:25:45;99938.91;;;17.37;82.49
16355;BME280;8287;51.644;8.494;2024-02-16T09:28:13;99941.16;;;17.35;82.84
16355;BME280;8287;51.644;8.494;2024-02-16T09:30:41;99936.66;;;17.39;83.69
16355;BME280;8287;51.644;8.494;2024-02-16T09:33:08;99954.69;;;17.42;83.75
16355;BME280;8287;51.644;8.494;2024-02-16T09:35:35;99958.81;;;17.36;82.89
16355;BME280;8287;51.644;8.494;2024-02-16T09:38:02;99960.84;;;17.23;83.79
16355;BME280;8287;51.644;8.494;2024-02-16T09:40:28;99964.47;;;17.34;83.53
16355;BME280;8287;51.644;8.494;2024-02-16T09:42:55;99973.94;;;17.47;83.69
16355;BME280;8287;51.644;8.494;2024-02-16T09:45:21;99967.50;;;17.52;83.59
16355;BME280;8287;51.644;8.494;2024-02-16T09:47:51;99976.25;;;17.49;84.15
16355;BME280;8287;51.644;8.494;2024-02-16T09:50:18;99980.47;;;17.50;84.30
16355;BME280;8287;51.644;8.494;2024-02-16T09:52:48;99966.75;;;17.55;84.66
16355;BME280;8287;51.644;8.494;2024-02-16T09:55:15;99978.81;;;17.42;85.55
16355;BME280;8287;51.644;8.494;2024-02-16T09:57:43;99980.66;;;17.38;86.10
16355;BME280;8287;51.644;8.494;2024-02-16T10:00:10;99982.19;;;17.39;86.80
16355;BME280;8287;51.644;8.494;2024-02-16T10:02:40;99984.00;;;17.35;86.79
16355;BME280;8287;51.644;8.494;2024-02-16T10:05:15;99987.19;;;17.40;86.91
16355;BME280;8287;51.644;8.494;2024-02-16T10:07:42;99988.09;;;17.48;86.44
16355;BME280;8287;51.644;8.494;2024-02-16T10:10:19;100000.38;;;17.49;87.31
16355;BME280;8287;51.644;8.494;2024-02-16T10:12:47;99998.69;;;17.41;86.31
16355;BME280;8287;51.644;8.494;2024-02-16T10:15:19;99999.16;;;17.46;86.61
16355;BME280;8287;51.644;8.494;2024-02-16T10:17:56;100002.84;;;17.61;86.21
16355;BME280;8287;51.644;8.494;2024-02-16T10:20:24;100002.13;;;17.64;85.84
16355;BME280;8287;51.644;8.494;2024-02-16T10:23:02;100011.69;;;17.61;86.14
16355;BME280;8287;51.644;8.494;2024-02-16T10:25:29;100010.53;;;17.62;86.39
16355;BME280;8287;51.644;8.494;2024-02-16T10:27:56;100025.59;;;17.70;85.28
16355;BME280;8287;51.644;8.494;2024-02-16T10:30:28;100022.69;;;17.56;85.88
16355;BME280;8287;51.644;8.494;2024-02-16T10:32:55;100024.69;;;17.63;85.75
16355;BME280;8287;51.644;8.494;2024-02-16T10:35:25;100027.50;;;17.70;84.82
16355;BME280;8287;51.644;8.494;2024-02-16T10:37:52;100033.19;;;17.65;84.87
16355;BME280;8287;51.644;8.494;2024-02-16T10:40:22;100035.66;;;17.77;84.88
16355;BME280;8287;51.644;8.494;2024-02-16T10:42:50;100035.84;;;17.65;84.82
16355;BME280;8287;51.644;8.494;2024-02-16T10:45:17;100033.09;;;17.84;84.90
16355;BME280;8287;51.644;8.494;2024-02-16T10:47:44;100022.56;;;17.94;83.92
16355;BME280;8287;51.644;8.494;2024-02-16T10:50:12;100036.66;;;17.91;83.75
16355;BME280;8287;51.644;8.494;2024-02-16T10:52:41;100037.84;;;17.94;83.17
16355;BME280;8287;51.644;8.494;2024-02-16T10:55:09;100040.31;;;18.02;84.12
16355;BME280;8287;51.644;8.494;2024-02-16T10:57:36;100040.13;;;17.92;82.92
16355;BME280;8287;51.644;8.494;2024-02-16T11:00:08;100029.13;;;18.00;83.59
16355;BME280;8287;51.644;8.494;2024-02-16T11:02:52;100037.97;;;18.01;82.21
16355;BME280;8287;51.644;8.494;2024-02-16T11:05:31;100037.41;;;18.14;81.79
16355;BME280;8287;51.644;8.494;2024-02-16T11:08:04;100052.41;;;18.19;81.77
16355;BME280;8287;51.644;8.494;2024-02-16T11:10:34;100047.88;;;18.23;81.15
16355;BME280;8287;51.644;8.494;2024-02-16T11:13:02;100041.50;;;18.31;81.93
16355;BME280;8287;51.644;8.494;2024-02-16T11:15:33;100048.31;;;18.51;81.20
16355;BME280;8287;51.644;8.494;2024-02-16T11:18:00;100054.88;;;18.53;80.53
16355;BME280;8287;51.644;8.494;2024-02-16T11:20:27;100050.84;;;18.40;81.06
16355;BME280;8287;51.644;8.494;2024-02-16T11:23:06;100046.25;;;18.41;80.72
16355;BME280;8287;51.644;8.494;2024-02-16T11:25:36;100047.56;;;18.28;80.96
16355;BME280;8287;51.644;8.494;2024-02-16T11:28:03;100049.94;;;18.29;81.43
16355;BME280;8287;51.644;8.494;2024-02-16T11:30:33;100053.91;;;18.16;82.31
16355;BME280;8287;51.644;8.494;2024-02-16T11:33:00;100064.50;;;18.09;81.91
16355;BME280;8287;51.644;8.494;2024-02-16T11:35:27;100050.88;;;18.18;82.61
16355;BME280;8287;51.644;8.494;2024-02-16T11:37:55;100046.66;;;18.17;83.14
16355;BME280;8287;51.644;8.494;2024-02-16T11:40:23;100055.44;;;18.17;82.75
16355;BME280;8287;51.644;8.494;2024-02-16T11:42:57;100063.50;;;18.17;82.33
16355;BME280;8287;51.644;8.494;2024-02-16T11:45:24;100069.72;;;17.99;83.18
16355;BME280;8287;51.644;8.494;2024-02-16T11:47:51;100069.22;;;17.93;83.40
16355;BME280;8287;51.644;8.494;2024-02-16T11:50:17;100064.03;;;18.04;83.89
16355;BME280;8287;51.644;8.494;2024-02-16T11:52:46;100061.50;;;17.88;86.56
16355;BME280;8287;51.644;8.494;2024-02-16T11:55:13;100066.94;;;17.92;86.01
16355;BME280;8287;51.644;8.494;2024-02-16T11:57:42;100070.31;;;17.89;84.76
16355;BME280;8287;51.644;8.494;2024-02-16T12:00:11;100081.16;;;17.73;85.93
16355;BME280;8287;51.644;8.494;2024-02-16T12:02:40;100074.72;;;17.78;86.79
16355;BME280;8287;51.644;8.494;2024-02-16T12:05:07;100076.66;;;17.77;86.47
16355;BME280;8287;51.644;8.494;2024-02-16T12:07:36;100071.69;;;17.79;85.93
16355;BME280;8287;51.644;8.494;2024-02-16T12:10:06;100077.06;;;17.79;85.49
16355;BME280;8287;51.644;8.494;2024-02-16T12:12:34;100079.03;;;17.82;85.80
16355;BME280;8287;51.644;8.494;2024-02-16T12:15:05;100075.03;;;17.73;85.92
16355;BME280;8287;51.644;8.494;2024-02-16T12:17:33;100076.47;;;17.67;86.89
16355;BME280;8287;51.644;8.494;2024-02-16T12:20:02;100073.72;;;17.63;87.45
16355;BME280;8287;51.644;8.494;2024-02-16T12:22:29;100078.34;;;17.66;87.19
16355;BME280;8287;51.644;8.494;2024-02-16T12:24:55;100085.63;;;17.66;88.63
16355;BME280;8287;51.644;8.494;2024-02-16T12:27:22;100084.66;;;17.55;87.91
16355;BME280;8287;51.644;8.494;2024-02-16T12:29:49;100085.09;;;17.38;89.87
16355;BME280;8287;51.644;8.494;2024-02-16T12:32:16;100094.41;;;17.44;89.94
16355;BME280;8287;51.644;8.494;2024-02-16T12:34:44;100088.97;;;17.40;90.46
16355;BME280;8287;51.644;8.494;2024-02-16T12:37:10;100102.72;;;17.39;91.19
16355;BME280;8287;51.644;8.494;2024-02-16T12:39:37;100094.88;;;17.49;91.26
16355;BME280;8287;51.644;8.494;2024-02-16T12:42:06;100108.00;;;17.35;92.01
16355;BME280;8287;51.644;8.494;2024-02-16T12:44:33;100107.03;;;17.43;91.17
16355;BME280;8287;51.644;8.494;2024-02-16T12:47:03;100091.88;;;17.51;91.29
16355;BME280;8287;51.644;8.494;2024-02-16T12:49:32;100093.81;;;17.54;91.21
16355;BME280;8287;51.644;8.494;2024-02-16T12:52:10;100099.00;;;17.43;92.97
16355;BME280;8287;51.644;8.494;2024-02-16T12:54:37;100092.94;;;17.46;92.88
16355;BME280;8287;51.644;8.494;2024-02-16T12:57:03;100111.28;;;17.44;93.33
16355;BME280;8287;51.644;8.494;2024-02-16T12:59:30;100100.91;;;17.43;92.61
16355;BME280;8287;51.644;8.494;2024-02-16T13:01:56;100104.97;;;17.37;92.62
16355;BME280;8287;51.644;8.494;2024-02-16T13:04:23;100104.38;;;17.43;92.80
16355;BME280;8287;51.644;8.494;2024-02-16T13:06:51;100110.13;;;17.45;93.36
16355;BME280;8287;51.644;8.494;2024-02-16T13:09:19;100113.38;;;17.35;93.60